sensor_id;sensor_type;location;lat;lon;timestamp;P1;durP1;ratioP1;P2;durP2;ratioP2
77022;SDS011;65952;51.440;-2.054;2023-07-20T00:01:34;3.63;;;1.70;;
77022;SDS011;65952;51.440;-2.054;2023-07-20T00:03:59;4.03;;;2.00;;
77022;SDS011;65952;51.440;-2.054;2023-07-20T00:06:25;3.55;;;1.88;;
77022;SDS011;65952;51.440;-2.054;2023-07-20T00:08:52;4.25;;;1.92;;
77022;SDS011;65952;51.440;-2.054;2023-07-20T00:11:21;4.70;;;1.85;;
77022;SDS011;65952;51.440;-2.054;2023-07-20T00:13:51;3.75;;;1.80;;
77022;SDS011;65952;51.440;-2.054;2023-07-20T00:16:16;4.03;;;2.00;;
77022;SDS011;65952;51.440;-2.054;2023-07-20T00:18:42;5.30;;;1.95;;
77022;SDS011;65952;51.440;-2.054;2023-07-20T00:21:07;3.63;;;1.80;;
77022;SDS011;65952;51.440;-2.054;2023-07-20T00:23:32;4.25;;;1.70;;
77022;SDS011;65952;51.440;-2.054;2023-07-20T00:25:58;4.82;;;1.75;;
77022;SDS011;65952;51.440;-2.054;2023-07-20T00:28:23;4.55;;;2.13;;
77022;SDS011;65952;51.440;-2.054;2023-07-20T00:30:49;3.28;;;1.80;;
77022;SDS011;65952;51.440;-2.054;2023-07-20T00:33:16;4.22;;;1.95;;
77022;SDS011;65952;51.440;-2.054;2023-07-20T00:35:42;3.28;;;1.75;;
77022;SDS011;65952;51.440;-2.054;2023-07-20T00:38:07;3.88;;;2.00;;
77022;SDS011;65952;51.440;-2.054;2023-07-20T00:40:39;4.90;;;1.85;;
77022;SDS011;65952;51.440;-2.054;2023-07-20T00:43:05;4.22;;;1.70;;
77022;SDS011;65952;51.440;-2.054;2023-07-20T00:45:31;4.22;;;1.92;;
77022;SDS011;65952;51.440;-2.054;2023-07-20T00:47:58;4.13;;;2.03;;
77022;SDS011;65952;51.440;-2.054;2023-07-20T00:50:24;4.15;;;1.80;;
77022;SDS011;65952;51.440;-2.054;2023-07-20T00:52:51;3.63;;;1.80;;
77022;SDS011;65952;51.440;-2.054;2023-07-20T00:55:18;3.78;;;1.92;;
77022;SDS011;65952;51.440;-2.054;2023-07-20T00:57:44;3.95;;;1.85;;
77022;SDS011;65952;51.440;-2.054;2023-07-20T01:00:09;3.80;;;1.90;;
77022;SDS011;65952;51.440;-2.054;2023-07-20T01:02:35;3.55;;;1.80;;
77022;SDS011;65952;51.440;-2.054;2023-07-20T01:05:01;3.22;;;1.63;;
77022;SDS011;65952;51.440;-2.054;2023-07-20T01:10:14;3.33;;;1.73;;
77022;SDS011;65952;51.440;-2.054;2023-07-20T01:12:53;3.97;;;1.90;;
77022;SDS011;65952;51.440;-2.054;2023-07-20T01:15:20;4.70;;;1.90;;
77022;SDS011;65952;51.440;-2.054;2023-07-20T01:17:46;4.38;;;2.00;;
77022;SDS011;65952;51.440;-2.054;2023-07-20T01:20:15;4.20;;;2.08;;
77022;SDS011;65952;51.440;-2.054;2023-07-20T01:33:17;3.15;;;1.83;;
77022;SDS011;65952;51.440;-2.054;2023-07-20T01:35:44;4.22;;;1.92;;
77022;SDS011;65952;51.440;-2.054;2023-07-20T01:38:12;3.63;;;1.83;;
77022;SDS011;65952;51.440;-2.054;2023-07-20T01:40:39;4.43;;;2.33;;
77022;SDS011;65952;51.440;-2.054;2023-07-20T01:43:05;3.80;;;1.90;;
77022;SDS011;65952;51.440;-2.054;2023-07-20T01:45:31;4.07;;;2.10;;
77022;SDS011;65952;51.440;-2.054;2023-07-20T01:47:56;4.22;;;1.90;;
77022;SDS011;65952;51.440;-2.054;2023-07-20T01:50:22;4.43;;;2.20;;
77022;SDS011;65952;51.440;-2.054;2023-07-20T01:52:47;4.18;;;2.10;;
77022;SDS011;65952;51.440;-2.054;2023-07-20T01:55:13;4.18;;;1.90;;
77022;SDS011;65952;51.440;-2.054;2023-07-20T01:57:38;4.88;;;2.40;;
77022;SDS011;65952;51.440;-2.054;2023-07-20T02:00:04;4.55;;;2.20;;
77022;SDS011;65952;51.440;-2.054;2023-07-20T02:02:30;4.82;;;2.17;;
77022;SDS011;65952;51.440;-2.054;2023-07-20T02:04:55;4.50;;;1.90;;
77022;SDS011;65952;51.440;-2.054;2023-07-20T02:07:21;4.75;;;2.20;;
77022;SDS011;65952;51.440;-2.054;2023-07-20T02:09:47;4.95;;;2.20;;
77022;SDS011;65952;51.440;-2.054;2023-07-20T02:12:12;5.32;;;2.20;;
77022;SDS011;65952;51.440;-2.054;2023-07-20T02:14:37;4.40;;;2.00;;
77022;SDS011;65952;51.440;-2.054;2023-07-20T02:17:04;4.40;;;2.45;;
77022;SDS011;65952;51.440;-2.054;2023-07-20T02:19:29;5.57;;;2.20;;
77022;SDS011;65952;51.440;-2.054;2023-07-20T02:21:55;3.80;;;2.20;;
77022;SDS011;65952;51.440;-2.054;2023-07-20T02:24:20;7.30;;;2.20;;
77022;SDS011;65952;51.440;-2.054;2023-07-20T02:26:46;5.63;;;2.22;;
77022;SDS011;65952;51.440;-2.054;2023-07-20T02:29:11;4.28;;;2.10;;
77022;SDS011;65952;51.440;-2.054;2023-07-20T02:31:37;4.25;;;2.28;;
77022;SDS011;65952;51.440;-2.054;2023-07-20T02:34:04;5.40;;;2.28;;
77022;SDS011;65952;51.440;-2.054;2023-07-20T02:36:32;4.60;;;2.20;;
77022;SDS011;65952;51.440;-2.054;2023-07-20T02:38:58;4.88;;;2.30;;
77022;SDS011;65952;51.440;-2.054;2023-07-20T02:41:24;4.22;;;2.00;;
77022;SDS011;65952;51.440;-2.054;2023-07-20T02:43:49;5.05;;;2.10;;
77022;SDS011;65952;51.440;-2.054;2023-07-20T02:46:15;3.70;;;2.00;;
77022;SDS011;65952;51.440;-2.054;2023-07-20T02:48:40;4.03;;;2.17;;
77022;SDS011;65952;51.440;-2.054;2023-07-20T02:51:07;4.55;;;2.10;;
77022;SDS011;65952;51.440;-2.054;2023-07-20T02:53:32;5.32;;;2.17;;
77022;SDS011;65952;51.440;-2.054;2023-07-20T02:55:58;5.75;;;2.28;;
77022;SDS011;65952;51.440;-2.054;2023-07-20T02:58:24;5.32;;;2.38;;
77022;SDS011;65952;51.440;-2.054;2023-07-20T03:00:49;4.32;;;2.38;;
77022;SDS011;65952;51.440;-2.054;2023-07-20T03:03:15;4.32;;;2.30;;
77022;SDS011;65952;51.440;-2.054;2023-07-20T03:05:41;4.03;;;2.13;;
77022;SDS011;65952;51.440;-2.054;2023-07-20T03:08:06;4.25;;;2.25;;
77022;SDS011;65952;51.440;-2.054;2023-07-20T03:10:32;4.03;;;2.28;;
77022;SDS011;65952;51.440;-2.054;2023-07-20T03:12:57;4.82;;;2.35;;
77022;SDS011;65952;51.440;-2.054;2023-07-20T03:15:23;4.65;;;2.50;;
77022;SDS011;65952;51.440;-2.054;2023-07-20T03:17:48;4.78;;;2.15;;
77022;SDS011;65952;51.440;-2.054;2023-07-20T03:20:14;4.88;;;2.25;;
77022;SDS011;65952;51.440;-2.054;2023-07-20T03:22:39;4.82;;;2.33;;
77022;SDS011;65952;51.440;-2.054;2023-07-20T03:25:05;4.35;;;2.30;;
77022;SDS011;65952;51.440;-2.054;2023-07-20T03:27:30;5.55;;;2.42;;
77022;SDS011;65952;51.440;-2.054;2023-07-20T03:29:56;4.93;;;2.40;;
77022;SDS011;65952;51.440;-2.054;2023-07-20T03:32:21;4.32;;;2.33;;
77022;SDS011;65952;51.440;-2.054;2023-07-20T03:34:46;4.32;;;2.50;;
77022;SDS011;65952;51.440;-2.054;2023-07-20T03:37:12;4.30;;;2.28;;
77022;SDS011;65952;51.440;-2.054;2023-07-20T03:39:38;4.47;;;2.35;;
77022;SDS011;65952;51.440;-2.054;2023-07-20T03:42:03;4.45;;;2.55;;
77022;SDS011;65952;51.440;-2.054;2023-07-20T03:44:30;4.30;;;2.22;;
77022;SDS011;65952;51.440;-2.054;2023-07-20T03:46:55;4.88;;;2.50;;
77022;SDS011;65952;51.440;-2.054;2023-07-20T03:49:21;4.88;;;2.38;;
77022;SDS011;65952;51.440;-2.054;2023-07-20T03:51:46;5.20;;;2.58;;
77022;SDS011;65952;51.440;-2.054;2023-07-20T03:54:11;5.88;;;2.80;;
77022;SDS011;65952;51.440;-2.054;2023-07-20T03:56:37;4.63;;;2.55;;
77022;SDS011;65952;51.440;-2.054;2023-07-20T03:59:02;4.45;;;2.25;;
77022;SDS011;65952;51.440;-2.054;2023-07-20T04:01:28;5.65;;;2.40;;
77022;SDS011;65952;51.440;-2.054;2023-07-20T04:03:53;4.78;;;2.42;;
77022;SDS011;65952;51.440;-2.054;2023-07-20T04:06:18;5.95;;;2.80;;
77022;SDS011;65952;51.440;-2.054;2023-07-20T04:08:44;4.95;;;2.40;;
77022;SDS011;65952;51.440;-2.054;2023-07-20T04:11:12;5.20;;;2.70;;
77022;SDS011;65952;51.440;-2.054;2023-07-20T04:13:37;5.90;;;2.60;;
77022;SDS011;65952;51.440;-2.054;2023-07-20T04:16:03;5.47;;;2.40;;
77022;SDS011;65952;51.440;-2.054;2023-07-20T04:18:28;5.03;;;2.85;;
77022;SDS011;65952;51.440;-2.054;2023-07-20T04:20:54;4.63;;;2.55;;
77022;SDS011;65952;51.440;-2.054;2023-07-20T04:23:19;5.20;;;2.58;;
77022;SDS011;65952;51.440;-2.054;2023-07-20T04:25:45;4.50;;;2.20;;
77022;SDS011;65952;51.440;-2.054;2023-07-20T04:28:10;4.00;;;2.20;;
77022;SDS011;65952;51.440;-2.054;2023-07-20T04:30:36;4.10;;;2.35;;
77022;SDS011;65952;51.440;-2.054;2023-07-20T04:33:02;5.22;;;2.40;;
77022;SDS011;65952;51.440;-2.054;2023-07-20T04:35:44;5.30;;;2.50;;
77022;SDS011;65952;51.440;-2.054;2023-07-20T04:38:17;5.32;;;2.42;;
77022;SDS011;65952;51.440;-2.054;2023-07-20T04:40:44;5.13;;;2.53;;
77022;SDS011;65952;51.440;-2.054;2023-07-20T04:43:10;4.82;;;2.45;;
77022;SDS011;65952;51.440;-2.054;2023-07-20T04:45:36;3.75;;;2.22;;
77022;SDS011;65952;51.440;-2.054;2023-07-20T04:48:01;5.82;;;2.88;;
77022;SDS011;65952;51.440;-2.054;2023-07-20T04:50:27;5.25;;;2.53;;
77022;SDS011;65952;51.440;-2.054;2023-07-20T04:52:53;5.43;;;2.70;;
77022;SDS011;65952;51.440;-2.054;2023-07-20T04:55:18;5.43;;;2.58;;
77022;SDS011;65952;51.440;-2.054;2023-07-20T04:57:43;4.75;;;2.40;;
77022;SDS011;65952;51.440;-2.054;2023-07-20T05:00:09;5.40;;;2.53;;
77022;SDS011;65952;51.440;-2.054;2023-07-20T05:02:39;5.03;;;2.70;;
77022;SDS011;65952;51.440;-2.054;2023-07-20T05:05:04;5.82;;;3.10;;
77022;SDS011;65952;51.440;-2.054;2023-07-20T05:07:31;4.38;;;2.45;;
77022;SDS011;65952;51.440;-2.054;2023-07-20T05:09:56;5.55;;;2.47;;
77022;SDS011;65952;51.440;-2.054;2023-07-20T05:12:22;4.32;;;2.30;;
77022;SDS011;65952;51.440;-2.054;2023-07-20T05:14:47;4.28;;;2.40;;
77022;SDS011;65952;51.440;-2.054;2023-07-20T05:17:12;5.10;;;2.70;;
77022;SDS011;65952;51.440;-2.054;2023-07-20T05:19:38;4.63;;;2.55;;
77022;SDS011;65952;51.440;-2.054;2023-07-20T05:22:04;5.03;;;2.60;;
77022;SDS011;65952;51.440;-2.054;2023-07-20T05:24:30;4.65;;;2.50;;
77022;SDS011;65952;51.440;-2.054;2023-07-20T05:26:56;6.00;;;2.55;;
77022;SDS011;65952;51.440;-2.054;2023-07-20T05:29:21;4.07;;;2.40;;
77022;SDS011;65952;51.440;-2.054;2023-07-20T05:31:47;5.88;;;3.22;;
77022;SDS011;65952;51.440;-2.054;2023-07-20T05:34:12;6.88;;;3.00;;
77022;SDS011;65952;51.440;-2.054;2023-07-20T05:36:37;5.30;;;2.55;;
77022;SDS011;65952;51.440;-2.054;2023-07-20T05:39:03;5.32;;;2.50;;
77022;SDS011;65952;51.440;-2.054;2023-07-20T05:41:28;4.57;;;2.60;;
77022;SDS011;65952;51.440;-2.054;2023-07-20T05:43:53;4.55;;;2.28;;
77022;SDS011;65952;51.440;-2.054;2023-07-20T05:46:19;5.55;;;2.60;;
77022;SDS011;65952;51.440;-2.054;2023-07-20T05:48:44;6.68;;;2.90;;
77022;SDS011;65952;51.440;-2.054;2023-07-20T05:51:10;5.97;;;2.30;;
77022;SDS011;65952;51.440;-2.054;2023-07-20T05:53:35;5.35;;;2.45;;
77022;SDS011;65952;51.440;-2.054;2023-07-20T05:56:01;5.28;;;2.70;;
77022;SDS011;65952;51.440;-2.054;2023-07-20T05:58:27;5.35;;;2.60;;
77022;SDS011;65952;51.440;-2.054;2023-07-20T06:00:53;6.93;;;2.58;;
77022;SDS011;65952;51.440;-2.054;2023-07-20T06:03:18;5.13;;;2.33;;
77022;SDS011;65952;51.440;-2.054;2023-07-20T06:05:46;6.50;;;2.45;;
77022;SDS011;65952;51.440;-2.054;2023-07-20T06:08:11;6.18;;;2.38;;
77022;SDS011;65952;51.440;-2.054;2023-07-20T06:10:37;4.60;;;2.30;;
77022;SDS011;65952;51.440;-2.054;2023-07-20T06:13:02;6.30;;;2.67;;
77022;SDS011;65952;51.440;-2.054;2023-07-20T06:15:28;4.32;;;2.20;;
77022;SDS011;65952;51.440;-2.054;2023-07-20T06:17:56;4.72;;;2.50;;
77022;SDS011;65952;51.440;-2.054;2023-07-20T06:20:23;5.70;;;2.53;;
77022;SDS011;65952;51.440;-2.054;2023-07-20T06:22:49;4.43;;;2.40;;
77022;SDS011;65952;51.440;-2.054;2023-07-20T06:25:14;5.40;;;2.50;;
77022;SDS011;65952;51.440;-2.054;2023-07-20T06:27:40;4.45;;;2.30;;
77022;SDS011;65952;51.440;-2.054;2023-07-20T06:30:05;4.05;;;2.10;;
77022;SDS011;65952;51.440;-2.054;2023-07-20T06:32:31;4.10;;;2.30;;
77022;SDS011;65952;51.440;-2.054;2023-07-20T06:34:57;3.80;;;2.20;;
77022;SDS011;65952;51.440;-2.054;2023-07-20T06:37:22;6.03;;;2.10;;
77022;SDS011;65952;51.440;-2.054;2023-07-20T06:39:48;4.13;;;2.00;;
77022;SDS011;65952;51.440;-2.054;2023-07-20T06:42:14;4.43;;;2.15;;
77022;SDS011;65952;51.440;-2.054;2023-07-20T06:44:39;4.18;;;2.20;;
77022;SDS011;65952;51.440;-2.054;2023-07-20T06:47:05;4.20;;;2.10;;
77022;SDS011;65952;51.440;-2.054;2023-07-20T06:49:30;5.72;;;2.08;;
77022;SDS011;65952;51.440;-2.054;2023-07-20T06:51:56;4.10;;;2.03;;
77022;SDS011;65952;51.440;-2.054;2023-07-20T06:54:21;3.65;;;1.98;;
77022;SDS011;65952;51.440;-2.054;2023-07-20T06:56:47;5.47;;;2.10;;
77022;SDS011;65952;51.440;-2.054;2023-07-20T06:59:12;4.03;;;2.03;;
77022;SDS011;65952;51.440;-2.054;2023-07-20T07:01:38;3.67;;;1.90;;
77022;SDS011;65952;51.440;-2.054;2023-07-20T07:04:04;4.70;;;2.05;;
77022;SDS011;65952;51.440;-2.054;2023-07-20T07:06:30;3.97;;;1.95;;
77022;SDS011;65952;51.440;-2.054;2023-07-20T07:08:56;3.75;;;1.98;;
77022;SDS011;65952;51.440;-2.054;2023-07-20T07:11:21;3.78;;;2.03;;
77022;SDS011;65952;51.440;-2.054;2023-07-20T07:13:47;5.65;;;1.90;;
77022;SDS011;65952;51.440;-2.054;2023-07-20T07:16:14;5.13;;;2.30;;
77022;SDS011;65952;51.440;-2.054;2023-07-20T07:18:43;6.18;;;2.20;;
77022;SDS011;65952;51.440;-2.054;2023-07-20T07:21:11;4.00;;;1.90;;
77022;SDS011;65952;51.440;-2.054;2023-07-20T07:23:40;4.28;;;2.20;;
77022;SDS011;65952;51.440;-2.054;2023-07-20T07:26:05;5.03;;;2.20;;
77022;SDS011;65952;51.440;-2.054;2023-07-20T07:28:31;5.35;;;2.08;;
77022;SDS011;65952;51.440;-2.054;2023-07-20T07:30:59;3.72;;;2.20;;
77022;SDS011;65952;51.440;-2.054;2023-07-20T07:33:24;3.97;;;2.10;;
77022;SDS011;65952;51.440;-2.054;2023-07-20T07:35:50;4.13;;;1.95;;
77022;SDS011;65952;51.440;-2.054;2023-07-20T07:38:17;4.28;;;2.40;;
77022;SDS011;65952;51.440;-2.054;2023-07-20T07:40:43;3.92;;;2.20;;
77022;SDS011;65952;51.440;-2.054;2023-07-20T07:43:08;5.30;;;2.10;;
77022;SDS011;65952;51.440;-2.054;2023-07-20T07:45:35;4.72;;;2.22;;
77022;SDS011;65952;51.440;-2.054;2023-07-20T07:48:04;4.45;;;2.00;;
77022;SDS011;65952;51.440;-2.054;2023-07-20T07:50:31;3.72;;;2.00;;
77022;SDS011;65952;51.440;-2.054;2023-07-20T07:52:56;4.55;;;2.20;;
77022;SDS011;65952;51.440;-2.054;2023-07-20T07:55:22;4.47;;;2.10;;
77022;SDS011;65952;51.440;-2.054;2023-07-20T07:57:47;3.92;;;2.03;;
77022;SDS011;65952;51.440;-2.054;2023-07-20T08:00:13;5.68;;;2.00;;
77022;SDS011;65952;51.440;-2.054;2023-07-20T08:02:42;4.57;;;2.00;;
77022;SDS011;65952;51.440;-2.054;2023-07-20T08:05:09;3.95;;;1.90;;
77022;SDS011;65952;51.440;-2.054;2023-07-20T08:07:35;3.40;;;1.90;;
77022;SDS011;65952;51.440;-2.054;2023-07-20T08:10:01;3.45;;;2.00;;
77022;SDS011;65952;51.440;-2.054;2023-07-20T08:12:26;4.75;;;1.83;;
77022;SDS011;65952;51.440;-2.054;2023-07-20T08:14:52;3.55;;;1.85;;
77022;SDS011;65952;51.440;-2.054;2023-07-20T08:17:17;4.13;;;1.73;;
77022;SDS011;65952;51.440;-2.054;2023-07-20T08:19:43;3.60;;;1.85;;
77022;SDS011;65952;51.440;-2.054;2023-07-20T08:22:09;3.38;;;1.80;;
77022;SDS011;65952;51.440;-2.054;2023-07-20T08:24:34;3.70;;;1.70;;
77022;SDS011;65952;51.440;-2.054;2023-07-20T08:27:00;3.35;;;1.70;;
77022;SDS011;65952;51.440;-2.054;2023-07-20T08:29:25;3.13;;;1.60;;
77022;SDS011;65952;51.440;-2.054;2023-07-20T08:31:51;3.42;;;1.65;;
77022;SDS011;65952;51.440;-2.054;2023-07-20T08:34:16;3.10;;;1.30;;
77022;SDS011;65952;51.440;-2.054;2023-07-20T08:36:41;3.10;;;1.40;;
77022;SDS011;65952;51.440;-2.054;2023-07-20T08:39:07;3.55;;;1.50;;
77022;SDS011;65952;51.440;-2.054;2023-07-20T08:41:33;4.18;;;1.70;;
77022;SDS011;65952;51.440;-2.054;2023-07-20T08:43:59;3.40;;;1.40;;
77022;SDS011;65952;51.440;-2.054;2023-07-20T08:46:26;3.00;;;1.50;;
77022;SDS011;65952;51.440;-2.054;2023-07-20T08:48:52;6.60;;;1.55;;
77022;SDS011;65952;51.440;-2.054;2023-07-20T08:51:17;8.10;;;1.85;;
77022;SDS011;65952;51.440;-2.054;2023-07-20T08:53:45;3.35;;;1.60;;
77022;SDS011;65952;51.440;-2.054;2023-07-20T08:56:12;3.40;;;1.60;;
77022;SDS011;65952;51.440;-2.054;2023-07-20T08:58:39;3.70;;;1.60;;
77022;SDS011;65952;51.440;-2.054;2023-07-20T09:01:08;3.85;;;1.75;;
77022;SDS011;65952;51.440;-2.054;2023-07-20T09:03:35;4.63;;;1.75;;
77022;SDS011;65952;51.440;-2.054;2023-07-20T09:06:04;3.60;;;1.77;;
77022;SDS011;65952;51.440;-2.054;2023-07-20T09:08:29;2.72;;;1.60;;
77022;SDS011;65952;51.440;-2.054;2023-07-20T09:10:55;4.28;;;1.77;;
77022;SDS011;65952;51.440;-2.054;2023-07-20T09:13:20;4.85;;;1.90;;
77022;SDS011;65952;51.440;-2.054;2023-07-20T09:15:46;8.60;;;2.00;;
77022;SDS011;65952;51.440;-2.054;2023-07-20T09:18:12;4.40;;;1.50;;
77022;SDS011;65952;51.440;-2.054;2023-07-20T09:21:01;4.13;;;1.70;;
77022;SDS011;65952;51.440;-2.054;2023-07-20T09:23:38;2.40;;;1.50;;
77022;SDS011;65952;51.440;-2.054;2023-07-20T09:26:11;3.30;;;1.50;;
77022;SDS011;65952;51.440;-2.054;2023-07-20T09:28:44;3.10;;;1.60;;
77022;SDS011;65952;51.440;-2.054;2023-07-20T09:31:17;3.60;;;1.70;;
77022;SDS011;65952;51.440;-2.054;2023-07-20T09:33:44;3.55;;;1.80;;
77022;SDS011;65952;51.440;-2.054;2023-07-20T09:36:10;3.28;;;1.70;;
77022;SDS011;65952;51.440;-2.054;2023-07-20T09:38:42;3.53;;;1.73;;
77022;SDS011;65952;51.440;-2.054;2023-07-20T09:41:08;3.80;;;1.70;;
77022;SDS011;65952;51.440;-2.054;2023-07-20T09:43:38;4.28;;;2.20;;
77022;SDS011;65952;51.440;-2.054;2023-07-20T09:46:04;3.30;;;1.77;;
77022;SDS011;65952;51.440;-2.054;2023-07-20T09:48:30;3.38;;;1.70;;
77022;SDS011;65952;51.440;-2.054;2023-07-20T09:50:55;3.30;;;1.63;;
77022;SDS011;65952;51.440;-2.054;2023-07-20T09:53:21;4.68;;;1.80;;
77022;SDS011;65952;51.440;-2.054;2023-07-20T09:55:49;3.65;;;1.70;;
77022;SDS011;65952;51.440;-2.054;2023-07-20T09:58:15;3.67;;;1.70;;
77022;SDS011;65952;51.440;-2.054;2023-07-20T10:00:42;5.78;;;2.00;;
77022;SDS011;65952;51.440;-2.054;2023-07-20T10:03:10;4.38;;;1.67;;
77022;SDS011;65952;51.440;-2.054;2023-07-20T10:05:39;3.58;;;1.70;;
77022;SDS011;65952;51.440;-2.054;2023-07-20T10:08:09;4.07;;;1.70;;
77022;SDS011;65952;51.440;-2.054;2023-07-20T10:10:36;3.25;;;1.70;;
77022;SDS011;65952;51.440;-2.054;2023-07-20T10:13:05;3.47;;;1.70;;
77022;SDS011;65952;51.440;-2.054;2023-07-20T10:15:35;3.53;;;1.73;;
77022;SDS011;65952;51.440;-2.054;2023-07-20T10:20:42;4.38;;;1.80;;
77022;SDS011;65952;51.440;-2.054;2023-07-20T10:23:09;3.60;;;1.70;;
77022;SDS011;65952;51.440;-2.054;2023-07-20T10:25:36;3.50;;;1.70;;
77022;SDS011;65952;51.440;-2.054;2023-07-20T10:28:04;3.33;;;1.60;;
77022;SDS011;65952;51.440;-2.054;2023-07-20T10:30:31;3.10;;;1.60;;
77022;SDS011;65952;51.440;-2.054;2023-07-20T10:32:58;8.90;;;1.77;;
77022;SDS011;65952;51.440;-2.054;2023-07-20T10:35:28;2.97;;;1.60;;
77022;SDS011;65952;51.440;-2.054;2023-07-20T10:37:54;3.00;;;1.60;;
77022;SDS011;65952;51.440;-2.054;2023-07-20T10:43:07;3.25;;;1.60;;
77022;SDS011;65952;51.440;-2.054;2023-07-20T10:48:12;4.47;;;1.67;;
77022;SDS011;65952;51.440;-2.054;2023-07-20T10:50:40;2.65;;;1.40;;
77022;SDS011;65952;51.440;-2.054;2023-07-20T10:53:11;3.15;;;1.52;;
77022;SDS011;65952;51.440;-2.054;2023-07-20T10:55:37;4.00;;;1.60;;
77022;SDS011;65952;51.440;-2.054;2023-07-20T10:58:10;3.70;;;1.60;;
77022;SDS011;65952;51.440;-2.054;2023-07-20T11:00:37;3.28;;;1.73;;
77022;SDS011;65952;51.440;-2.054;2023-07-20T11:03:03;4.25;;;2.28;;
77022;SDS011;65952;51.440;-2.054;2023-07-20T11:05:36;2.95;;;1.70;;
77022;SDS011;65952;51.440;-2.054;2023-07-20T11:08:14;4.30;;;1.60;;
77022;SDS011;65952;51.440;-2.054;2023-07-20T11:13:53;3.25;;;1.65;;
77022;SDS011;65952;51.440;-2.054;2023-07-20T11:16:45;3.67;;;1.73;;
77022;SDS011;65952;51.440;-2.054;2023-07-20T11:19:24;4.30;;;1.70;;
77022;SDS011;65952;51.440;-2.054;2023-07-20T11:21:57;3.22;;;1.60;;
77022;SDS011;65952;51.440;-2.054;2023-07-20T11:24:23;2.42;;;1.40;;
77022;SDS011;65952;51.440;-2.054;2023-07-20T11:26:53;3.88;;;1.65;;
77022;SDS011;65952;51.440;-2.054;2023-07-20T11:29:20;4.15;;;1.90;;
77022;SDS011;65952;51.440;-2.054;2023-07-20T11:31:48;2.65;;;1.38;;
77022;SDS011;65952;51.440;-2.054;2023-07-20T11:34:18;4.35;;;1.77;;
77022;SDS011;65952;51.440;-2.054;2023-07-20T11:36:45;3.28;;;1.67;;
77022;SDS011;65952;51.440;-2.054;2023-07-20T11:39:14;3.25;;;1.80;;
77022;SDS011;65952;51.440;-2.054;2023-07-20T11:41:50;4.22;;;1.60;;
77022;SDS011;65952;51.440;-2.054;2023-07-20T11:44:20;4.03;;;1.67;;
77022;SDS011;65952;51.440;-2.054;2023-07-20T11:46:59;3.58;;;1.70;;
77022;SDS011;65952;51.440;-2.054;2023-07-20T11:49:37;3.20;;;1.70;;
77022;SDS011;65952;51.440;-2.054;2023-07-20T11:52:05;4.13;;;1.90;;
77022;SDS011;65952;51.440;-2.054;2023-07-20T11:54:32;3.58;;;1.70;;
77022;SDS011;65952;51.440;-2.054;2023-07-20T11:57:00;3.20;;;1.65;;
77022;SDS011;65952;51.440;-2.054;2023-07-20T11:59:26;3.08;;;1.60;;
77022;SDS011;65952;51.440;-2.054;2023-07-20T12:01:52;3.40;;;1.77;;
77022;SDS011;65952;51.440;-2.054;2023-07-20T12:04:18;3.25;;;1.60;;
77022;SDS011;65952;51.440;-2.054;2023-07-20T12:06:44;3.90;;;1.85;;
77022;SDS011;65952;51.440;-2.054;2023-07-20T12:09:13;3.50;;;1.70;;
77022;SDS011;65952;51.440;-2.054;2023-07-20T12:11:40;3.75;;;1.85;;
77022;SDS011;65952;51.440;-2.054;2023-07-20T12:14:07;3.45;;;1.73;;
77022;SDS011;65952;51.440;-2.054;2023-07-20T12:16:34;5.05;;;2.00;;
77022;SDS011;65952;51.440;-2.054;2023-07-20T12:24:02;3.40;;;1.90;;
77022;SDS011;65952;51.440;-2.054;2023-07-20T12:26:29;3.70;;;1.80;;
77022;SDS011;65952;51.440;-2.054;2023-07-20T12:28:55;3.42;;;1.80;;
77022;SDS011;65952;51.440;-2.054;2023-07-20T12:31:21;3.80;;;1.80;;
77022;SDS011;65952;51.440;-2.054;2023-07-20T12:33:48;4.15;;;1.80;;
77022;SDS011;65952;51.440;-2.054;2023-07-20T12:36:13;3.42;;;1.70;;
77022;SDS011;65952;51.440;-2.054;2023-07-20T12:38:39;3.90;;;1.85;;
77022;SDS011;65952;51.440;-2.054;2023-07-20T12:41:06;5.00;;;1.85;;
77022;SDS011;65952;51.440;-2.054;2023-07-20T12:43:32;3.20;;;1.60;;
77022;SDS011;65952;51.440;-2.054;2023-07-20T12:45:58;4.50;;;1.92;;
77022;SDS011;65952;51.440;-2.054;2023-07-20T12:48:24;5.03;;;1.85;;
77022;SDS011;65952;51.440;-2.054;2023-07-20T12:50:50;4.20;;;1.65;;
77022;SDS011;65952;51.440;-2.054;2023-07-20T12:53:16;4.00;;;2.00;;
77022;SDS011;65952;51.440;-2.054;2023-07-20T12:55:41;3.25;;;1.70;;
77022;SDS011;65952;51.440;-2.054;2023-07-20T12:58:07;3.50;;;1.70;;
77022;SDS011;65952;51.440;-2.054;2023-07-20T13:00:33;2.88;;;1.55;;
77022;SDS011;65952;51.440;-2.054;2023-07-20T13:02:58;3.45;;;1.70;;
77022;SDS011;65952;51.440;-2.054;2023-07-20T13:05:24;3.60;;;1.80;;
77022;SDS011;65952;51.440;-2.054;2023-07-20T13:07:49;3.72;;;1.90;;
77022;SDS011;65952;51.440;-2.054;2023-07-20T13:10:15;3.85;;;1.75;;
77022;SDS011;65952;51.440;-2.054;2023-07-20T13:12:41;4.78;;;1.80;;
77022;SDS011;65952;51.440;-2.054;2023-07-20T13:15:06;3.25;;;1.80;;
77022;SDS011;65952;51.440;-2.054;2023-07-20T13:17:37;3.63;;;1.75;;
77022;SDS011;65952;51.440;-2.054;2023-07-20T13:20:04;3.80;;;1.88;;
77022;SDS011;65952;51.440;-2.054;2023-07-20T13:22:31;3.55;;;1.90;;
77022;SDS011;65952;51.440;-2.054;2023-07-20T13:24:57;3.95;;;2.05;;
77022;SDS011;65952;51.440;-2.054;2023-07-20T13:27:22;3.08;;;1.70;;
77022;SDS011;65952;51.440;-2.054;2023-07-20T13:29:48;3.38;;;1.80;;
77022;SDS011;65952;51.440;-2.054;2023-07-20T13:32:13;3.55;;;1.90;;
77022;SDS011;65952;51.440;-2.054;2023-07-20T13:34:40;3.63;;;1.80;;
77022;SDS011;65952;51.440;-2.054;2023-07-20T13:37:06;3.65;;;1.80;;
77022;SDS011;65952;51.440;-2.054;2023-07-20T13:39:31;4.18;;;1.92;;
77022;SDS011;65952;51.440;-2.054;2023-07-20T13:41:56;3.75;;;1.92;;
77022;SDS011;65952;51.440;-2.054;2023-07-20T13:44:22;4.60;;;2.05;;
77022;SDS011;65952;51.440;-2.054;2023-07-20T13:46:48;5.07;;;2.00;;
77022;SDS011;65952;51.440;-2.054;2023-07-20T13:49:13;5.97;;;1.83;;
77022;SDS011;65952;51.440;-2.054;2023-07-20T13:51:39;4.80;;;1.95;;
77022;SDS011;65952;51.440;-2.054;2023-07-20T13:54:06;6.55;;;2.10;;
77022;SDS011;65952;51.440;-2.054;2023-07-20T13:56:31;3.95;;;1.90;;
77022;SDS011;65952;51.440;-2.054;2023-07-20T13:58:56;4.50;;;1.80;;
77022;SDS011;65952;51.440;-2.054;2023-07-20T14:01:22;3.92;;;1.80;;
77022;SDS011;65952;51.440;-2.054;2023-07-20T14:03:49;3.55;;;1.80;;
77022;SDS011;65952;51.440;-2.054;2023-07-20T14:06:15;5.15;;;1.90;;
77022;SDS011;65952;51.440;-2.054;2023-07-20T14:08:40;5.10;;;1.80;;
77022;SDS011;65952;51.440;-2.054;2023-07-20T14:11:06;3.67;;;1.80;;
77022;SDS011;65952;51.440;-2.054;2023-07-20T14:13:32;4.10;;;2.00;;
77022;SDS011;65952;51.440;-2.054;2023-07-20T14:15:57;4.25;;;1.90;;
77022;SDS011;65952;51.440;-2.054;2023-07-20T14:18:23;3.80;;;1.92;;
77022;SDS011;65952;51.440;-2.054;2023-07-20T14:20:48;4.85;;;2.10;;
77022;SDS011;65952;51.440;-2.054;2023-07-20T14:23:14;3.92;;;2.30;;
77022;SDS011;65952;51.440;-2.054;2023-07-20T14:25:39;4.28;;;2.25;;
77022;SDS011;65952;51.440;-2.054;2023-07-20T14:28:05;4.03;;;2.10;;
77022;SDS011;65952;51.440;-2.054;2023-07-20T14:30:31;4.95;;;2.20;;
77022;SDS011;65952;51.440;-2.054;2023-07-20T14:32:56;5.07;;;2.10;;
77022;SDS011;65952;51.440;-2.054;2023-07-20T14:35:21;3.92;;;2.00;;
77022;SDS011;65952;51.440;-2.054;2023-07-20T14:37:47;4.45;;;2.10;;
77022;SDS011;65952;51.440;-2.054;2023-07-20T14:40:13;4.38;;;2.15;;
77022;SDS011;65952;51.440;-2.054;2023-07-20T14:42:38;4.38;;;2.05;;
77022;SDS011;65952;51.440;-2.054;2023-07-20T14:45:05;3.90;;;2.05;;
77022;SDS011;65952;51.440;-2.054;2023-07-20T14:47:31;4.00;;;2.30;;
77022;SDS011;65952;51.440;-2.054;2023-07-20T14:56:49;3.50;;;1.90;;
77022;SDS011;65952;51.440;-2.054;2023-07-20T14:59:17;4.50;;;2.10;;
77022;SDS011;65952;51.440;-2.054;2023-07-20T15:01:43;4.45;;;2.08;;
77022;SDS011;65952;51.440;-2.054;2023-07-20T15:07:45;3.92;;;2.03;;
77022;SDS011;65952;51.440;-2.054;2023-07-20T15:10:11;4.57;;;2.20;;